createdAt,value
2022-08-02T00:00:04.128Z,0.60
2022-08-02T00:05:11.055Z,0.63
2022-08-02T00:10:15.045Z,0.33
2022-08-02T00:15:18.713Z,0.47
2022-08-02T00:20:24.105Z,0.60
2022-08-02T00:25:27.749Z,0.50
2022-08-02T00:30:31.416Z,0.50
2022-08-02T00:35:36.677Z,0.43
2022-08-02T00:40:49.326Z,0.50
2022-08-02T00:46:03.299Z,0.50
2022-08-02T00:51:08.884Z,0.40
2022-08-02T00:56:12.551Z,0.70
2022-08-02T01:01:16.518Z,0.60
2022-08-02T01:06:21.916Z,0.70
2022-08-02T01:11:25.669Z,0.50
2022-08-02T01:16:33.176Z,0.40
2022-08-02T01:22:00.267Z,0.60
2022-08-02T01:27:22.154Z,0.50
2022-08-02T01:32:32.757Z,0.50
2022-08-02T01:37:41.335Z,0.50
2022-08-02T01:42:48.854Z,0.50
2022-08-02T01:47:55.065Z,0.60
2022-08-02T01:53:04.169Z,0.53
2022-08-02T01:58:09.150Z,0.50
2022-08-02T02:03:16.372Z,0.60
2022-08-02T02:08:27.152Z,0.60
2022-08-02T02:13:33.560Z,0.50
2022-08-02T02:18:43.763Z,0.50
2022-08-02T02:23:47.576Z,0.70
2022-08-02T02:28:55.167Z,0.47
2022-08-02T02:34:03.137Z,0.57
2022-08-02T02:39:13.516Z,0.50
2022-08-02T02:44:21.522Z,0.50
2022-08-02T02:49:29.393Z,0.67
2022-08-02T02:54:35.361Z,0.43
2022-08-02T02:59:49.052Z,0.70
2022-08-02T03:04:58.094Z,0.50
2022-08-02T03:10:02.062Z,0.60
2022-08-02T03:15:08.248Z,0.60
2022-08-02T03:20:16.444Z,0.50
2022-08-02T03:25:20.333Z,0.53
2022-08-02T03:30:27.664Z,0.60
2022-08-02T03:35:33.197Z,0.60
2022-08-02T03:40:38.372Z,0.63
2022-08-02T03:45:45.393Z,0.60
2022-08-02T03:50:53.657Z,0.70
2022-08-02T03:55:57.926Z,0.60
2022-08-02T04:01:01.813Z,0.50
2022-08-02T04:06:07.321Z,0.77
2022-08-02T04:11:28.263Z,0.70
2022-08-02T04:16:40.924Z,0.63
2022-08-02T04:21:51.676Z,0.80
2022-08-02T04:27:01.166Z,0.77
2022-08-02T04:32:20.173Z,0.83
2022-08-02T04:37:26.633Z,1.00
2022-08-02T04:42:30.336Z,1.00
2022-08-02T04:48:02.507Z,1.00
2022-08-02T04:52:59.297Z,0.80
2022-08-02T04:58:04.241Z,0.90
2022-08-02T05:03:17.407Z,0.90
2022-08-02T05:08:22.447Z,1.13
2022-08-02T05:13:26.110Z,0.90
2022-08-02T05:18:29.868Z,1.10
2022-08-02T05:23:35.392Z,0.80
2022-08-02T05:28:38.952Z,1.17
2022-08-02T05:33:43.690Z,1.10
2022-08-02T05:38:50.797Z,0.80
2022-08-02T05:43:54.411Z,0.60
2022-08-02T05:48:58.163Z,0.70
2022-08-02T05:54:12.089Z,0.70
2022-08-02T05:59:33.907Z,0.90
2022-08-02T06:04:49.646Z,0.70
2022-08-02T06:09:54.979Z,0.70
2022-08-02T06:15:00.027Z,0.70
2022-08-02T06:20:04.702Z,0.70
2022-08-02T06:25:48.460Z,1.17
2022-08-02T06:30:34.873Z,0.70
2022-08-02T06:35:46.483Z,0.77
2022-08-02T06:40:57.319Z,1.10
2022-08-02T06:46:34.444Z,0.90
2022-08-02T06:51:24.923Z,0.97
2022-08-02T06:56:30.298Z,1.10
2022-08-02T07:01:38.721Z,0.80
2022-08-02T07:06:42.864Z,0.80
2022-08-02T07:11:47.803Z,0.70
2022-08-02T07:16:51.366Z,0.87
2022-08-02T07:21:57.056Z,0.90
2022-08-02T07:27:12.774Z,0.70
2022-08-02T07:32:17.672Z,1.00
2022-08-02T07:37:36.096Z,0.80
2022-08-02T07:42:47.479Z,0.90
2022-08-02T07:47:52.268Z,0.80
2022-08-02T07:52:58.113Z,0.70
2022-08-02T07:58:03.200Z,0.77
2022-08-02T08:03:07.161Z,0.80
2022-08-02T08:08:16.719Z,0.70
2022-08-02T08:13:22.447Z,0.80
2022-08-02T08:18:26.027Z,0.80
2022-08-02T08:23:29.786Z,0.77
2022-08-02T08:28:35.527Z,0.80
2022-08-02T08:33:39.112Z,0.70
2022-08-02T08:38:42.721Z,0.70
2022-08-02T08:43:53.130Z,0.70
2022-08-02T08:49:02.742Z,0.60
2022-08-02T08:54:10.899Z,0.60
2022-08-02T08:59:15.870Z,0.50
2022-08-02T09:04:20.242Z,0.53
2022-08-02T09:09:23.866Z,0.67
2022-08-02T09:14:30.043Z,0.50
2022-08-02T09:19:33.854Z,0.50
2022-08-02T09:24:46.279Z,0.70
2022-08-02T09:30:12.172Z,0.50
2022-08-02T09:36:06.403Z,0.57
2022-08-02T09:40:57.238Z,0.50
2022-08-02T09:46:11.387Z,0.60
2022-08-02T09:51:17.809Z,0.57
2022-08-02T09:56:29.594Z,0.50
2022-08-02T10:01:46.359Z,0.70
2022-08-02T10:06:55.399Z,0.50
2022-08-02T10:11:59.352Z,0.40
2022-08-02T10:17:06.005Z,0.50
2022-08-02T10:22:12.784Z,0.50
2022-08-02T10:27:20.931Z,0.40
2022-08-02T10:32:31.250Z,0.40
2022-08-02T10:37:39.325Z,0.40
2022-08-02T10:42:47.912Z,0.40
2022-08-02T10:48:06.006Z,0.40
2022-08-02T10:53:26.976Z,0.40
2022-08-02T10:58:32.652Z,0.60
2022-08-02T11:03:43.571Z,0.40
2022-08-02T11:08:47.130Z,0.40
2022-08-02T11:14:04.667Z,0.40
2022-08-02T11:19:09.623Z,0.30
2022-08-02T11:24:28.206Z,0.40
2022-08-02T11:29:38.519Z,0.50
2022-08-02T11:34:44.867Z,0.50
2022-08-02T11:39:52.673Z,0.40
2022-08-02T11:44:57.075Z,0.40
2022-08-02T11:50:10.684Z,0.50
2022-08-02T11:55:14.713Z,0.57
2022-08-02T12:00:20.168Z,0.50
2022-08-02T12:05:44.732Z,0.70
2022-08-02T12:10:51.372Z,0.50
2022-08-02T12:16:15.078Z,0.70
2022-08-02T12:21:24.965Z,0.40
2022-08-02T12:26:28.941Z,0.40
2022-08-02T12:31:56.094Z,0.40
2022-08-02T12:37:06.437Z,0.47
2022-08-02T12:42:12.195Z,0.50
2022-08-02T12:47:16.121Z,0.50
2022-08-02T12:52:22.494Z,0.40
2022-08-02T12:57:26.784Z,0.33
2022-08-02T13:02:31.591Z,0.30
2022-08-02T13:07:37.027Z,0.40
2022-08-02T13:12:41.186Z,0.40
2022-08-02T13:17:44.988Z,0.40
2022-08-02T13:22:52.749Z,0.40
2022-08-02T13:27:57.236Z,0.40
2022-08-02T13:33:01.393Z,0.50
2022-08-02T13:38:06.629Z,0.60
2022-08-02T13:43:10.168Z,0.70
2022-08-02T13:48:17.148Z,0.50
2022-08-02T13:53:24.266Z,0.73
2022-08-02T13:58:27.915Z,0.60
2022-08-02T14:04:05.873Z,0.50
2022-08-02T14:08:56.503Z,0.60
2022-08-02T14:14:00.153Z,0.50
2022-08-02T14:19:05.221Z,0.40
2022-08-02T14:24:16.012Z,0.50
2022-08-02T14:29:19.582Z,0.60
2022-08-02T14:34:23.255Z,0.50
2022-08-02T14:39:28.691Z,0.60
2022-08-02T14:44:47.428Z,0.60
2022-08-02T14:49:51.693Z,0.40
2022-08-02T14:54:56.864Z,0.50
2022-08-02T15:00:01.505Z,0.53
2022-08-02T15:05:05.516Z,0.33
2022-08-02T15:10:11.068Z,0.40
2022-08-02T15:15:14.827Z,0.50
2022-08-02T15:20:24.614Z,0.40
2022-08-02T15:25:31.016Z,0.47
2022-08-02T15:30:35.191Z,0.73
2022-08-02T15:35:38.796Z,0.50
2022-08-02T15:40:43.775Z,0.40
2022-08-02T15:45:47.464Z,0.40
2022-08-02T15:50:51.513Z,0.37
2022-08-02T15:56:05.347Z,0.60
2022-08-02T16:01:12.415Z,0.40
2022-08-02T16:06:16.619Z,0.50
2022-08-02T16:11:21.588Z,0.50
2022-08-02T16:16:27.082Z,0.30
2022-08-02T16:21:30.690Z,0.30
2022-08-02T16:26:35.790Z,0.40
2022-08-02T16:31:42.786Z,0.50
2022-08-02T16:36:46.789Z,0.50
2022-08-02T16:41:52.755Z,0.30
2022-08-02T16:46:56.870Z,0.50
2022-08-02T16:52:05.597Z,0.33
2022-08-02T16:57:10.960Z,0.40
2022-08-02T17:02:19.713Z,0.50
2022-08-02T17:08:07.757Z,0.40
2022-08-02T17:12:54.095Z,0.30
2022-08-02T17:17:58.092Z,0.50
2022-08-02T17:23:01.960Z,0.30
2022-08-02T17:28:07.177Z,0.40
2022-08-02T17:33:13.037Z,0.40
2022-08-02T17:38:26.094Z,0.50
2022-08-02T17:43:31.934Z,0.40
2022-08-02T17:48:50.338Z,0.40
2022-08-02T17:53:58.838Z,0.50
2022-08-02T17:59:20.658Z,0.40
2022-08-02T18:04:27.702Z,0.50
2022-08-02T18:09:32.778Z,0.50
2022-08-02T18:14:46.229Z,0.40
2022-08-02T18:19:58.648Z,0.40
2022-08-02T18:25:36.558Z,0.40
2022-08-02T18:30:37.105Z,0.30
2022-08-02T18:35:42.952Z,0.30
2022-08-02T18:40:50.790Z,0.40
2022-08-02T18:46:05.778Z,0.40
2022-08-02T18:51:19.452Z,0.30
2022-08-02T18:56:24.142Z,0.50
2022-08-02T19:01:31.882Z,0.40
2022-08-02T19:06:37.203Z,0.50
2022-08-02T19:11:47.061Z,0.40
2022-08-02T19:16:53.435Z,0.40
2022-08-02T19:22:17.882Z,0.40
2022-08-02T19:27:25.861Z,0.40
2022-08-02T19:32:40.512Z,0.40
2022-08-02T19:37:46.717Z,0.50
2022-08-02T19:44:27.560Z,0.40
2022-08-02T19:48:24.231Z,0.40
2022-08-02T19:53:48.781Z,0.50
2022-08-02T19:58:53.886Z,0.40
2022-08-02T20:03:59.113Z,0.30
2022-08-02T20:09:03.202Z,0.40
2022-08-02T20:14:09.084Z,0.50
2022-08-02T20:19:14.378Z,0.43
2022-08-02T20:24:18.815Z,0.47
2022-08-02T20:29:43.258Z,0.50
2022-08-02T20:34:48.657Z,0.60
2022-08-02T20:39:52.427Z,0.63
2022-08-02T20:44:57.404Z,0.40
2022-08-02T20:50:20.656Z,0.50
2022-08-02T20:55:35.638Z,0.40
2022-08-02T21:00:40.230Z,0.40
2022-08-02T21:05:54.518Z,0.50
2022-08-02T21:11:12.781Z,0.50
2022-08-02T21:16:23.269Z,0.43
2022-08-02T21:21:30.558Z,0.50
2022-08-02T21:26:34.356Z,0.40
2022-08-02T21:31:38.080Z,0.47
2022-08-02T21:36:46.072Z,0.50
2022-08-02T21:41:50.226Z,0.50
2022-08-02T21:46:55.750Z,0.40
2022-08-02T21:52:01.200Z,0.40
2022-08-02T21:57:04.996Z,0.40
2022-08-02T22:02:10.864Z,0.50
2022-08-02T22:07:17.329Z,0.40
2022-08-02T22:12:32.264Z,0.50
2022-08-02T22:17:53.417Z,0.50
2022-08-02T22:23:01.223Z,0.50
2022-08-02T22:28:37.218Z,0.47
2022-08-02T22:34:00.200Z,0.43
2022-08-02T22:39:18.858Z,0.40
2022-08-02T22:44:23.429Z,0.50
2022-08-02T22:49:38.763Z,0.50
2022-08-02T22:54:50.783Z,0.57
2022-08-02T22:59:54.661Z,0.50
2022-08-02T23:04:58.307Z,0.40
2022-08-02T23:10:04.661Z,0.57
2022-08-02T23:15:09.596Z,0.37
2022-08-02T23:20:14.251Z,0.40
2022-08-02T23:25:19.201Z,0.60
2022-08-02T23:30:22.999Z,0.40
2022-08-02T23:35:26.599Z,0.57
2022-08-02T23:40:40.309Z,0.50
2022-08-02T23:45:46.464Z,0.50
2022-08-02T23:50:50.208Z,0.60
2022-08-02T23:55:55.185Z,0.63
